Time;durP1;ratioP1;P1;durP2;ratioP2;P2;SDS_P1;SDS_P2;PMS_P1;PMS_P2;Temp;Humidity;BMP_temperature;BMP_pressure;BME280_temperature;BME280_humidity;BME280_pressure;Samples;Min_cycle;Max_cycle;Signal;HPM_P1;HPM_P2
2022/05/30 00:04:50;;;;;;;0.63;0.40;;;6.30;99.90;;;;;;21061091;28;20028;-54
2022/05/30 00:14:53;;;;;;;2.30;0.35;;;6.20;99.90;;;;;;21047378;28;20542;-57
2022/05/30 00:24:56;;;;;;;1.38;0.30;;;6.20;99.90;;;;;;21043880;28;20054;-56
2022/05/30 00:34:59;;;;;;;0.45;0.30;;;6.40;99.90;;;;;;21061268;28;20469;-56
2022/05/30 00:45:01;;;;;;;0.20;0.20;;;6.40;99.90;;;;;;21046176;28;20044;-55
2022/05/30 00:55:19;;;;;;;0.88;0.40;;;6.30;99.90;;;;;;21036593;28;20062;-55
2022/05/30 01:15:43;;;;;;;0.75;0.30;;;5.80;99.90;;;;;;21062945;28;20080;-56
2022/05/30 01:26:19;;;;;;;0.50;0.30;;;5.50;99.90;;;;;;21091113;28;20040;-56
2022/05/30 01:36:32;;;;;;;0.80;0.40;;;5.40;99.90;;;;;;21072935;28;20036;-55
2022/05/30 01:46:35;;;;;;;0.40;0.38;;;5.70;99.90;;;;;;21032832;28;20497;-53
2022/05/30 01:56:42;;;;;;;1.95;0.50;;;5.70;99.90;;;;;;20998294;28;20143;-55
2022/05/30 02:06:44;;;;;;;0.88;0.40;;;5.70;99.90;;;;;;20999140;28;20063;-56
2022/05/30 02:17:01;;;;;;;0.57;0.30;;;5.80;99.90;;;;;;21047120;28;20036;-56
2022/05/30 02:27:06;;;;;;;1.83;0.70;;;5.90;99.90;;;;;;21050910;28;20036;-56
2022/05/30 02:37:08;;;;;;;2.47;0.55;;;5.90;99.90;;;;;;20981540;28;20052;-56
2022/05/30 02:47:12;;;;;;;0.50;0.40;;;5.70;99.90;;;;;;21049910;28;20031;-52
2022/05/30 02:57:21;;;;;;;0.80;0.47;;;5.70;99.90;;;;;;21065371;28;20093;-55
2022/05/30 03:07:24;;;;;;;0.60;0.40;;;5.90;99.90;;;;;;21058932;28;20032;-57
2022/05/30 03:17:27;;;;;;;1.13;0.57;;;6.10;99.90;;;;;;21057417;28;20036;-55
2022/05/30 03:27:30;;;;;;;1.30;0.60;;;6.10;99.90;;;;;;21044338;28;20409;-50
2022/05/30 03:37:36;;;;;;;2.47;0.75;;;5.90;99.90;;;;;;21058764;28;20105;-53
2022/05/30 03:47:58;;;;;;;1.30;0.90;;;5.90;99.90;;;;;;21064508;28;20035;-48
2022/05/30 03:58:11;;;;;;;1.33;0.68;;;6.00;99.90;;;;;;21062483;28;20074;-59
2022/05/30 04:08:15;;;;;;;0.55;0.40;;;6.10;99.90;;;;;;21085994;28;20039;-52
2022/05/30 04:18:36;;;;;;;0.82;0.30;;;6.20;99.90;;;;;;21097786;28;20085;-49
2022/05/30 04:28:39;;;;;;;0.90;0.60;;;6.30;99.90;;;;;;21082912;28;20044;-60
2022/05/30 04:39:01;;;;;;;0.63;0.40;;;6.40;99.90;;;;;;21065275;28;20067;-60
2022/05/30 04:49:24;;;;;;;0.77;0.40;;;6.50;99.90;;;;;;21056000;28;20062;-49
2022/05/30 04:59:28;;;;;;;1.42;0.75;;;6.70;99.90;;;;;;21027950;28;20085;-60
2022/05/30 05:09:41;;;;;;;0.80;0.65;;;7.20;99.90;;;;;;21033285;28;20057;-60
2022/05/30 05:19:53;;;;;;;1.00;0.60;;;7.90;99.90;;;;;;21057625;28;20044;-50
2022/05/30 05:29:56;;;;;;;0.55;0.43;;;8.50;99.90;;;;;;21048286;28;20043;-60
2022/05/30 05:39:58;;;;;;;0.47;0.30;;;8.90;99.90;;;;;;21046752;28;20044;-60
2022/05/30 05:50:01;;;;;;;0.93;0.20;;;9.20;99.90;;;;;;21047562;28;20058;-60
2022/05/30 06:00:05;;;;;;;0.10;0.00;;;9.30;99.90;;;;;;21079590;28;20097;-61
2022/05/30 06:10:14;;;;;;;0.03;0.03;;;9.80;99.90;;;;;;21046836;28;20032;-53
2022/05/30 06:20:31;;;;;;;0.20;0.07;;;11.00;99.90;;;;;;21051638;28;20032;-61
2022/05/30 06:30:38;;;;;;;0.10;0.10;;;11.50;99.90;;;;;;21041209;28;20036;-50
2022/05/30 06:40:42;;;;;;;0.15;0.00;;;11.90;99.90;;;;;;21041292;28;20413;-53
2022/05/30 06:50:53;;;;;;;0.00;0.00;;;13.80;99.90;;;;;;21047645;28;20057;-49
2022/05/30 07:01:02;;;;;;;0.20;0.03;;;16.30;99.10;;;;;;21047926;28;20481;-53
2022/05/30 07:11:11;;;;;;;0.05;0.00;;;16.80;98.20;;;;;;21065523;28;20044;-62
2022/05/30 07:21:15;;;;;;;0.10;0.00;;;16.30;98.70;;;;;;21042631;28;20040;-62
2022/05/30 07:31:37;;;;;;;0.30;0.20;;;15.10;98.70;;;;;;20788272;28;20072;-55
2022/05/30 07:41:59;;;;;;;0.20;0.10;;;14.80;99.90;;;;;;20772343;28;20513;-63
2022/05/30 07:52:11;;;;;;;0.00;0.00;;;14.50;99.90;;;;;;20690460;28;20580;-55
2022/05/30 08:02:25;;;;;;;0.98;0.00;;;14.60;98.70;;;;;;20808528;28;20469;-55
2022/05/30 08:12:29;;;;;;;0.10;0.10;;;14.90;99.40;;;;;;21079218;28;20036;-58
2022/05/30 08:22:35;;;;;;;0.38;0.10;;;15.60;97.80;;;;;;21077910;28;20028;-59
2022/05/30 08:32:41;;;;;;;0.10;0.10;;;16.60;97.20;;;;;;21077641;28;20028;-59
2022/05/30 08:43:11;;;;;;;1.50;0.13;;;18.20;95.50;;;;;;21048044;28;20044;-62
2022/05/30 08:53:32;;;;;;;0.40;0.20;;;19.40;92.50;;;;;;21059277;28;20335;-62
2022/05/30 09:04:09;;;;;;;1.08;0.30;;;18.70;94.10;;;;;;21077343;28;20035;-61
2022/05/30 09:14:32;;;;;;;0.57;0.25;;;18.00;94.50;;;;;;21054562;28;20438;-57
2022/05/30 09:24:38;;;;;;;0.40;0.17;;;16.80;95.70;;;;;;21080500;28;20092;-60
2022/05/30 09:34:45;;;;;;;0.32;0.25;;;16.50;96.00;;;;;;21092089;28;20128;-56
2022/05/30 09:45:13;;;;;;;0.35;0.30;;;16.20;96.80;;;;;;21081491;28;20056;-59
2022/05/30 09:55:51;;;;;;;0.40;0.30;;;16.20;96.60;;;;;;20868065;28;20076;-59
2022/05/30 10:06:18;;;;;;;0.57;0.40;;;16.20;93.80;;;;;;20855358;28;20111;-62
2022/05/30 10:16:33;;;;;;;1.55;0.60;;;16.40;97.70;;;;;;20865531;28;20072;-63
2022/05/30 10:37:32;;;;;;;2.05;0.98;;;15.30;99.90;;;;;;20711029;28;20050;-60
2022/05/30 10:47:45;;;;;;;2.13;1.30;;;15.50;99.90;;;;;;20710500;28;20077;-60
2022/05/30 10:57:58;;;;;;;1.42;1.33;;;15.80;99.90;;;;;;20709696;28;20050;-59
2022/05/30 11:08:23;;;;;;;7.05;2.47;;;15.20;99.90;;;;;;20771671;28;20080;-59
2022/05/30 11:19:10;;;;;;;3.20;2.50;;;14.80;99.90;;;;;;21053612;28;20275;-59
2022/05/30 11:29:58;;;;;;;4.07;2.50;;;14.60;99.90;;;;;;20698709;28;20567;-59
2022/05/30 11:40:27;;;;;;;3.63;2.47;;;15.80;99.90;;;;;;20774931;28;20065;-57
2022/05/30 11:51:02;;;;;;;3.17;2.58;;;17.80;99.90;;;;;;20788700;28;20577;-60
2022/05/30 12:01:08;;;;;;;3.17;2.70;;;17.40;99.90;;;;;;20919924;28;20454;-58
2022/05/30 12:11:28;;;;;;;6.28;3.20;;;18.20;99.80;;;;;;21033901;28;20652;-60
2022/05/30 12:32:17;;;;;;;5.45;3.30;;;17.20;99.90;;;;;;21043487;28;20057;-62
2022/05/30 12:42:34;;;;;;;3.72;3.33;;;16.40;99.90;;;;;;21044390;28;20455;-60
2022/05/30 12:52:54;;;;;;;3.72;2.92;;;17.40;99.80;;;;;;21085121;28;20040;-57
2022/05/30 13:03:20;;;;;;;4.73;3.87;;;16.80;99.90;;;;;;21062760;28;20093;-59
2022/05/30 13:13:31;;;;;;;3.33;3.00;;;15.90;99.90;;;;;;21076662;28;20458;-60
2022/05/30 13:23:35;;;;;;;3.00;2.42;;;15.00;99.90;;;;;;21073516;28;20094;-61
2022/05/30 13:33:42;;;;;;;2.83;2.15;;;15.20;99.90;;;;;;21070779;28;20078;-59
2022/05/30 13:43:45;;;;;;;2.83;2.30;;;15.70;99.90;;;;;;21051009;28;20070;-59
2022/05/30 13:53:50;;;;;;;4.53;1.98;;;16.40;99.90;;;;;;21053970;28;20032;-61
2022/05/30 14:04:02;;;;;;;2.20;1.90;;;16.30;99.90;;;;;;21070150;28;20040;-59
2022/05/30 14:14:05;;;;;;;4.28;2.38;;;15.30;99.90;;;;;;21052194;28;20443;-61
2022/05/30 14:24:33;;;;;;;3.35;2.63;;;15.20;99.90;;;;;;21068518;28;20097;-59
2022/05/30 14:34:39;;;;;;;3.45;2.70;;;15.40;99.90;;;;;;21051797;28;20036;-60
2022/05/30 14:44:52;;;;;;;5.85;3.13;;;15.40;99.90;;;;;;21052432;28;20036;-59
2022/05/30 14:54:56;;;;;;;3.60;2.70;;;15.30;99.90;;;;;;21003094;28;20037;-61
2022/05/30 15:04:59;;;;;;;6.20;3.70;;;15.00;99.90;;;;;;21018974;28;20036;-61
2022/05/30 15:15:34;;;;;;;5.55;3.30;;;14.90;99.90;;;;;;21001273;28;20176;-60
2022/05/30 15:25:39;;;;;;;3.20;2.67;;;14.50;99.90;;;;;;20982382;28;20066;-61
2022/05/30 15:35:41;;;;;;;4.45;2.75;;;14.50;99.90;;;;;;21006011;28;20036;-58
2022/05/30 15:45:44;;;;;;;9.77;3.15;;;14.40;99.90;;;;;;21014796;28;20032;-61
2022/05/30 16:06:10;;;;;;;3.55;2.50;;;14.00;99.90;;;;;;20987899;28;20045;-61
2022/05/30 16:16:14;;;;;;;4.93;3.38;;;13.60;99.90;;;;;;21047484;28;20094;-60
2022/05/30 16:26:29;;;;;;;5.20;3.00;;;13.70;99.90;;;;;;21066011;28;20662;-57
2022/05/30 16:36:40;;;;;;;3.47;2.90;;;13.50;99.90;;;;;;21060630;28;20097;-61
2022/05/30 16:46:43;;;;;;;3.65;2.83;;;13.50;99.90;;;;;;21090042;28;20101;-61
2022/05/30 16:56:48;;;;;;;5.55;3.00;;;13.30;99.90;;;;;;21053711;28;20028;-61
2022/05/30 17:06:54;;;;;;;5.70;3.55;;;12.80;99.90;;;;;;21072063;28;20036;-61
2022/05/30 17:16:57;;;;;;;5.30;3.30;;;12.60;99.90;;;;;;21087741;28;20094;-61
2022/05/30 17:37:21;;;;;;;5.63;4.13;;;11.80;99.90;;;;;;21056750;28;20040;-60
2022/05/30 17:47:36;;;;;;;6.00;3.20;;;11.40;99.90;;;;;;21047002;28;20548;-60
2022/05/30 17:57:39;;;;;;;7.07;3.88;;;11.00;99.90;;;;;;21079362;28;20036;-60
2022/05/30 18:08:18;;;;;;;8.35;3.90;;;10.70;99.90;;;;;;21086082;28;20036;-58
2022/05/30 18:29:15;;;;;;;7.50;4.88;;;10.10;99.90;;;;;;21075640;28;20048;-56
2022/05/30 18:39:47;;;;;;;9.45;4.95;;;9.80;99.90;;;;;;21043322;28;20036;-56
2022/05/30 18:50:03;;;;;;;9.88;5.72;;;9.60;99.90;;;;;;21057913;28;20020;-57
2022/05/30 19:00:23;;;;;;;9.07;5.43;;;9.40;99.90;;;;;;21058574;28;20044;-60
2022/05/30 19:10:27;;;;;;;7.10;5.15;;;9.20;99.90;;;;;;21046961;28;20036;-59
2022/05/30 19:20:30;;;;;;;8.73;5.97;;;9.00;99.90;;;;;;21030044;28;20054;-60
2022/05/30 19:30:33;;;;;;;9.20;5.78;;;8.90;99.90;;;;;;21030480;28;20035;-57
2022/05/30 19:41:00;;;;;;;11.63;7.45;;;8.70;99.90;;;;;;21049054;28;20124;-60
2022/05/30 19:51:06;;;;;;;10.43;7.55;;;8.50;99.90;;;;;;21036111;28;20032;-57
2022/05/30 20:01:08;;;;;;;11.20;7.22;;;8.40;99.90;;;;;;21064901;28;20518;-55
2022/05/30 20:11:12;;;;;;;10.63;7.30;;;8.40;99.90;;;;;;21007274;28;20389;-56
2022/05/30 20:21:15;;;;;;;10.98;6.82;;;8.40;99.90;;;;;;21054978;28;20397;-57
2022/05/30 20:31:18;;;;;;;10.27;6.28;;;8.40;99.90;;;;;;21050749;28;20097;-57
2022/05/30 20:51:43;;;;;;;7.97;5.80;;;8.60;99.90;;;;;;21038027;28;20430;-56
2022/05/30 21:01:47;;;;;;;8.40;5.90;;;8.70;99.90;;;;;;21036620;28;20036;-59
2022/05/30 21:11:50;;;;;;;11.00;5.97;;;8.90;99.90;;;;;;21056701;28;20668;-55
2022/05/30 21:21:57;;;;;;;8.23;6.13;;;9.00;99.90;;;;;;21039593;28;20435;-57
2022/05/30 21:32:08;;;;;;;11.15;6.95;;;9.00;99.90;;;;;;21045551;28;20032;-60
2022/05/30 21:42:10;;;;;;;;;;;9.00;99.90;;;;;;21042775;28;20121;-57
2022/05/30 21:52:13;;;;;;;11.57;7.43;;;9.10;99.90;;;;;;21040085;28;20318;-57
2022/05/30 22:02:15;;;;;;;11.85;7.20;;;9.20;99.90;;;;;;21047359;28;20117;-57
2022/05/30 22:12:20;;;;;;;12.65;7.60;;;9.30;99.90;;;;;;21040023;28;20033;-56
2022/05/30 22:22:23;;;;;;;15.88;8.05;;;9.30;99.90;;;;;;21036901;28;20037;-55
2022/05/30 22:32:26;;;;;;;15.85;8.85;;;9.20;99.90;;;;;;21042830;28;20485;-60
2022/05/30 22:42:28;;;;;;;11.75;8.23;;;9.20;99.90;;;;;;21059836;28;20113;-57
2022/05/30 22:52:31;;;;;;;12.85;8.48;;;9.20;99.90;;;;;;21031967;28;20032;-56
2022/05/30 23:02:33;;;;;;;13.02;8.32;;;9.30;99.90;;;;;;21041507;28;20036;-60
2022/05/30 23:12:39;;;;;;;14.55;8.43;;;9.30;99.90;;;;;;21027899;28;20040;-51
2022/05/30 23:22:43;;;;;;;20.95;9.18;;;9.30;99.90;;;;;;21044080;28;20439;-54
2022/05/30 23:32:46;;;;;;;14.43;9.18;;;9.20;99.90;;;;;;21031823;28;20545;-60
2022/05/30 23:53:14;;;;;;;13.57;9.07;;;9.10;99.90;;;;;;21048429;28;20482;-60
